createdAt,value
2023-03-16T00:00:20.148Z,53.95
2023-03-16T00:03:22.156Z,54.01
2023-03-16T00:06:25.667Z,54.01
2023-03-16T00:09:31.367Z,54.09
2023-03-16T00:12:34.910Z,53.92
2023-03-16T00:15:36.645Z,54.11
2023-03-16T00:18:41.230Z,54.14
2023-03-16T00:21:43.090Z,54.06
2023-03-16T00:24:44.823Z,53.90
2023-03-16T00:27:46.582Z,53.87
2023-03-16T00:30:48.640Z,53.95
2023-03-16T00:33:51.111Z,53.93
2023-03-16T00:36:52.933Z,53.82
2023-03-16T00:39:57.963Z,53.66
2023-03-16T00:42:59.697Z,53.88
2023-03-16T00:46:06.813Z,53.95
2023-03-16T00:49:09.493Z,53.83
2023-03-16T00:52:15.791Z,54.06
2023-03-16T00:55:18.748Z,54.08
2023-03-16T00:58:20.455Z,54.08
2023-03-16T01:01:22.137Z,53.87
2023-03-16T01:04:23.879Z,54.10
2023-03-16T01:07:25.733Z,53.90
2023-03-16T01:10:27.836Z,54.03
2023-03-16T01:13:30.087Z,54.06
2023-03-16T01:16:33.927Z,54.00
2023-03-16T01:19:37.365Z,53.67
2023-03-16T01:22:39.265Z,53.97
2023-03-16T01:25:41.338Z,54.14
2023-03-16T01:28:44.505Z,54.32
2023-03-16T01:31:46.403Z,54.31
2023-03-16T01:34:48.609Z,54.68
2023-03-16T01:37:51.598Z,54.85
2023-03-16T01:40:58.152Z,54.96
2023-03-16T01:44:00.013Z,55.04
2023-03-16T01:47:03.116Z,55.19
2023-03-16T01:50:06.617Z,55.32
2023-03-16T01:53:11.973Z,55.26
2023-03-16T01:56:18.772Z,55.32
2023-03-16T01:59:23.798Z,55.21
2023-03-16T02:02:30.063Z,55.05
2023-03-16T02:05:43.720Z,55.46
2023-03-16T02:08:50.274Z,55.40
2023-03-16T02:11:54.432Z,55.31
2023-03-16T02:14:57.365Z,55.61
2023-03-16T02:18:00.407Z,55.81
2023-03-16T02:21:21.386Z,56.04
2023-03-16T02:24:23.314Z,56.16
2023-03-16T02:27:35.282Z,56.21
2023-03-16T02:30:37.458Z,56.33
2023-03-16T02:33:41.664Z,56.24
2023-03-16T02:36:46.597Z,56.34
2023-03-16T02:39:48.454Z,56.30
2023-03-16T02:43:06.807Z,56.63
2023-03-16T02:46:15.032Z,56.45
2023-03-16T02:49:27.332Z,56.55
2023-03-16T02:52:29.417Z,56.75
2023-03-16T02:55:31.230Z,56.72
2023-03-16T02:58:33.207Z,56.58
2023-03-16T03:01:37.226Z,56.18
2023-03-16T03:04:38.975Z,56.11
2023-03-16T03:07:42.220Z,56.00
2023-03-16T03:10:44.062Z,55.88
2023-03-16T03:13:47.011Z,55.87
2023-03-16T03:16:53.450Z,55.74
2023-03-16T03:19:55.568Z,55.45
2023-03-16T03:22:57.276Z,55.63
2023-03-16T03:26:00.006Z,55.51
2023-03-16T03:29:02.701Z,55.40
2023-03-16T03:32:05.174Z,55.04
2023-03-16T03:35:07.592Z,55.16
2023-03-16T03:38:09.660Z,54.99
2023-03-16T03:41:11.663Z,54.74
2023-03-16T03:44:14.712Z,54.66
2023-03-16T03:47:16.598Z,54.39
2023-03-16T03:50:18.633Z,54.25
2023-03-16T03:53:34.213Z,54.13
2023-03-16T03:56:49.033Z,53.94
2023-03-16T03:59:51.675Z,53.76
2023-03-16T04:03:12.299Z,54.01
2023-03-16T04:06:18.744Z,53.81
2023-03-16T04:09:20.578Z,53.66
2023-03-16T04:12:23.027Z,53.96
2023-03-16T04:15:26.429Z,53.73
2023-03-16T04:19:06.902Z,53.64
2023-03-16T04:22:08.714Z,53.56
2023-03-16T04:25:12.554Z,53.44
2023-03-16T04:28:17.869Z,53.52
2023-03-16T04:31:22.626Z,53.39
2023-03-16T04:34:25.237Z,53.32
2023-03-16T04:37:31.125Z,53.10
2023-03-16T04:40:33.010Z,53.16
2023-03-16T04:43:43.284Z,52.87
2023-03-16T04:46:52.516Z,52.98
2023-03-16T04:49:55.903Z,52.68
2023-03-16T04:52:59.070Z,52.86
2023-03-16T04:56:02.208Z,52.79
2023-03-16T04:59:05.168Z,52.68
2023-03-16T05:02:17.805Z,52.79
2023-03-16T05:05:20.271Z,52.75
2023-03-16T05:08:22.678Z,52.59
2023-03-16T05:11:25.927Z,52.62
2023-03-16T05:14:32.545Z,52.37
2023-03-16T05:17:46.976Z,52.32
2023-03-16T05:20:51.994Z,51.79
2023-03-16T05:23:53.977Z,51.91
2023-03-16T05:26:55.991Z,51.66
2023-03-16T05:29:59.056Z,51.69
2023-03-16T05:33:02.341Z,51.59
2023-03-16T05:36:04.976Z,51.66
2023-03-16T05:39:08.734Z,51.50
2023-03-16T05:42:15.004Z,51.44
2023-03-16T05:45:24.122Z,50.89
2023-03-16T05:48:37.861Z,50.98
2023-03-16T05:51:41.258Z,50.41
2023-03-16T05:54:44.322Z,50.58
2023-03-16T05:57:46.322Z,49.91
2023-03-16T06:00:48.263Z,49.45
2023-03-16T06:03:57.254Z,49.11
2023-03-16T06:07:01.865Z,48.79
2023-03-16T06:10:06.538Z,48.21
2023-03-16T06:13:09.568Z,47.56
2023-03-16T06:16:13.934Z,47.06
2023-03-16T06:19:15.896Z,46.48
2023-03-16T06:22:18.561Z,46.23
2023-03-16T06:25:20.685Z,46.11
2023-03-16T06:28:23.265Z,45.91
2023-03-16T06:31:25.303Z,45.94
2023-03-16T06:34:27.228Z,45.58
2023-03-16T06:37:31.329Z,45.46
2023-03-16T06:40:36.450Z,45.41
2023-03-16T06:43:38.557Z,44.99
2023-03-16T06:46:40.485Z,44.69
2023-03-16T06:49:43.353Z,44.70
2023-03-16T06:52:53.126Z,44.96
2023-03-16T06:55:55.013Z,45.00
2023-03-16T06:58:57.303Z,44.86
2023-03-16T07:01:59.107Z,44.54
2023-03-16T07:05:01.225Z,44.79
2023-03-16T07:08:04.993Z,44.93
2023-03-16T07:11:07.197Z,44.75
2023-03-16T07:14:10.374Z,44.54
2023-03-16T07:17:12.196Z,44.51
2023-03-16T07:20:14.132Z,44.28
2023-03-16T07:23:18.183Z,43.90
2023-03-16T07:26:20.022Z,43.55
2023-03-16T07:29:29.429Z,43.04
2023-03-16T07:32:32.700Z,42.62
2023-03-16T07:35:35.296Z,42.33
2023-03-16T07:38:37.846Z,42.23
2023-03-16T07:41:40.485Z,41.88
2023-03-16T07:44:51.909Z,41.38
2023-03-16T07:47:53.835Z,40.85
2023-03-16T07:51:18.354Z,40.82
2023-03-16T07:54:24.382Z,40.43
2023-03-16T07:57:26.386Z,40.30
2023-03-16T08:00:28.788Z,40.42
2023-03-16T08:03:32.192Z,40.51
2023-03-16T08:06:34.069Z,40.31
2023-03-16T08:09:37.763Z,40.02
2023-03-16T08:12:42.597Z,40.14
2023-03-16T08:16:01.990Z,39.67
2023-03-16T08:19:12.041Z,39.47
2023-03-16T08:22:14.268Z,39.32
2023-03-16T08:25:22.480Z,39.04
2023-03-16T08:28:35.795Z,38.85
2023-03-16T08:31:42.966Z,38.65
2023-03-16T08:34:53.854Z,38.69
2023-03-16T08:37:56.578Z,38.72
2023-03-16T08:40:58.592Z,39.06
2023-03-16T08:44:01.066Z,39.08
2023-03-16T08:47:05.282Z,39.17
2023-03-16T08:50:10.218Z,39.13
2023-03-16T08:53:14.096Z,39.39
2023-03-16T08:56:15.824Z,39.70
2023-03-16T08:59:29.170Z,39.61
2023-03-16T09:02:31.708Z,39.47
2023-03-16T09:05:34.351Z,39.38
2023-03-16T09:08:39.197Z,39.22
2023-03-16T09:11:41.797Z,39.04
2023-03-16T09:14:43.661Z,39.03
2023-03-16T09:17:45.952Z,38.97
2023-03-16T09:20:50.433Z,38.93
2023-03-16T09:23:52.339Z,38.93
2023-03-16T09:26:54.029Z,38.42
2023-03-16T09:29:56.579Z,38.37
2023-03-16T09:32:58.880Z,38.59
2023-03-16T09:36:00.817Z,38.57
2023-03-16T09:39:03.666Z,38.44
2023-03-16T09:42:41.422Z,38.65
2023-03-16T09:45:56.648Z,38.52
2023-03-16T09:48:59.467Z,38.32
2023-03-16T09:52:30.411Z,38.44
2023-03-16T09:55:37.881Z,38.32
2023-03-16T09:58:39.690Z,38.33
2023-03-16T10:01:57.164Z,38.28
2023-03-16T10:05:12.677Z,38.20
2023-03-16T10:08:18.639Z,38.10
2023-03-16T10:11:47.247Z,38.24
2023-03-16T10:15:13.001Z,38.42
2023-03-16T10:18:21.316Z,38.14
2023-03-16T10:21:24.701Z,37.75
2023-03-16T10:24:45.012Z,37.26
2023-03-16T10:27:48.283Z,37.18
2023-03-16T10:30:55.461Z,36.71
2023-03-16T10:34:05.234Z,36.38
2023-03-16T10:37:13.702Z,36.88
2023-03-16T10:40:20.400Z,36.81
2023-03-16T10:43:22.774Z,37.02
2023-03-16T10:46:27.654Z,37.05
2023-03-16T10:49:42.340Z,36.98
2023-03-16T10:52:47.022Z,36.75
2023-03-16T10:55:50.427Z,36.77
2023-03-16T10:58:52.427Z,37.14
2023-03-16T11:01:54.645Z,36.92
2023-03-16T11:04:57.546Z,36.69
2023-03-16T11:08:02.656Z,36.26
2023-03-16T11:11:17.908Z,35.71
2023-03-16T11:14:23.463Z,36.36
2023-03-16T11:17:38.349Z,36.49
2023-03-16T11:20:40.097Z,36.53
2023-03-16T11:23:49.774Z,36.61
2023-03-16T11:26:58.717Z,36.89
2023-03-16T11:30:41.797Z,36.68
2023-03-16T11:33:43.637Z,36.83
2023-03-16T11:37:10.118Z,36.63
2023-03-16T11:40:33.307Z,35.87
2023-03-16T11:43:50.110Z,35.55
2023-03-16T11:47:14.646Z,35.08
2023-03-16T11:50:25.916Z,35.41
2023-03-16T11:53:52.554Z,35.36
2023-03-16T11:57:30.840Z,35.42
2023-03-16T12:01:10.494Z,35.02
2023-03-16T12:04:31.233Z,35.10
2023-03-16T12:07:45.157Z,34.69
2023-03-16T12:10:57.166Z,34.57
2023-03-16T12:14:15.857Z,34.53
2023-03-16T12:17:25.983Z,34.71
2023-03-16T12:20:32.160Z,34.38
2023-03-16T12:23:38.783Z,34.52
2023-03-16T12:26:42.874Z,35.22
2023-03-16T12:30:14.415Z,35.42
2023-03-16T12:33:28.398Z,35.38
2023-03-16T12:36:52.876Z,35.00
2023-03-16T12:40:09.221Z,34.36
2023-03-16T12:43:11.004Z,34.38
2023-03-16T12:46:42.094Z,34.82
2023-03-16T12:49:44.259Z,35.01
2023-03-16T12:52:51.943Z,35.71
2023-03-16T12:55:53.782Z,35.94
2023-03-16T12:58:58.347Z,36.19
2023-03-16T13:02:03.726Z,36.21
2023-03-16T13:05:14.504Z,36.35
2023-03-16T13:08:18.647Z,36.68
2023-03-16T13:11:20.482Z,36.76
2023-03-16T13:14:40.515Z,36.84
2023-03-16T13:17:42.979Z,35.89
2023-03-16T13:20:57.941Z,34.97
2023-03-16T13:24:13.901Z,34.03
2023-03-16T13:27:26.787Z,33.71
2023-03-16T13:30:32.112Z,33.32
2023-03-16T13:33:37.026Z,32.64
2023-03-16T13:36:39.434Z,32.20
2023-03-16T13:39:41.750Z,32.58
2023-03-16T13:42:49.694Z,32.48
2023-03-16T13:45:52.030Z,33.12
2023-03-16T13:48:53.786Z,33.17
2023-03-16T13:51:55.626Z,33.91
2023-03-16T13:54:59.213Z,34.15
2023-03-16T13:58:01.839Z,34.73
2023-03-16T14:01:12.093Z,35.33
2023-03-16T14:04:18.710Z,35.49
2023-03-16T14:07:23.938Z,35.93
2023-03-16T14:10:35.463Z,36.32
2023-03-16T14:13:39.270Z,36.03
2023-03-16T14:16:41.202Z,35.74
2023-03-16T14:19:52.352Z,36.03
2023-03-16T14:22:54.576Z,36.02
2023-03-16T14:25:56.647Z,36.13
2023-03-16T14:29:05.277Z,35.93
2023-03-16T14:32:28.126Z,35.80
2023-03-16T14:35:41.841Z,35.99
2023-03-16T14:38:45.666Z,36.42
2023-03-16T14:41:52.437Z,36.63
2023-03-16T14:44:54.747Z,36.38
2023-03-16T14:48:04.394Z,36.29
2023-03-16T14:51:06.802Z,36.29
2023-03-16T14:54:21.849Z,36.35
2023-03-16T14:57:26.054Z,36.14
2023-03-16T15:00:30.171Z,35.82
2023-03-16T15:03:36.306Z,35.49
2023-03-16T15:06:38.288Z,35.45
2023-03-16T15:09:44.568Z,35.45
2023-03-16T15:12:50.742Z,35.61
2023-03-16T15:15:52.536Z,36.31
2023-03-16T15:18:54.386Z,37.14
2023-03-16T15:22:03.849Z,37.68
2023-03-16T15:25:36.392Z,38.30
2023-03-16T15:28:38.773Z,38.23
2023-03-16T15:31:40.929Z,38.35
2023-03-16T15:34:45.909Z,38.69
2023-03-16T15:37:48.007Z,38.55
2023-03-16T15:40:51.443Z,38.35
2023-03-16T15:43:53.863Z,38.07
2023-03-16T15:46:56.063Z,38.26
2023-03-16T15:49:57.840Z,38.03
2023-03-16T15:53:09.053Z,38.00
2023-03-16T15:56:14.019Z,38.05
2023-03-16T15:59:19.106Z,38.19
2023-03-16T16:02:32.078Z,38.29
2023-03-16T16:05:34.173Z,38.14
2023-03-16T16:08:36.012Z,38.15
2023-03-16T16:11:38.711Z,38.95
2023-03-16T16:14:41.824Z,38.89
2023-03-16T16:17:56.746Z,38.99
2023-03-16T16:21:07.209Z,38.75
2023-03-16T16:24:10.813Z,39.08
2023-03-16T16:27:12.979Z,38.92
2023-03-16T16:30:27.612Z,38.86
2023-03-16T16:33:35.057Z,39.01
2023-03-16T16:36:36.854Z,39.41
2023-03-16T16:39:38.654Z,39.72
2023-03-16T16:42:41.579Z,39.95
2023-03-16T16:45:43.750Z,40.06
2023-03-16T16:48:48.179Z,40.47
2023-03-16T16:51:50.597Z,40.38
2023-03-16T16:54:52.453Z,40.45
2023-03-16T16:57:55.056Z,40.55
2023-03-16T17:00:59.013Z,40.61
2023-03-16T17:04:02.543Z,40.75
2023-03-16T17:07:06.615Z,41.00
2023-03-16T17:10:16.378Z,40.97
2023-03-16T17:13:26.656Z,41.12
2023-03-16T17:16:32.337Z,41.46
2023-03-16T17:19:34.397Z,41.72
2023-03-16T17:22:37.224Z,42.00
2023-03-16T17:25:40.761Z,42.21
2023-03-16T17:28:47.528Z,42.43
2023-03-16T17:31:50.022Z,42.56
2023-03-16T17:34:52.254Z,42.80
2023-03-16T17:37:54.072Z,42.80
2023-03-16T17:40:56.473Z,43.07
2023-03-16T17:44:02.690Z,43.29
2023-03-16T17:47:11.504Z,43.26
2023-03-16T17:50:26.815Z,43.56
2023-03-16T17:53:28.715Z,43.90
2023-03-16T17:56:32.100Z,44.49
2023-03-16T17:59:33.775Z,44.56
2023-03-16T18:02:42.846Z,45.09
2023-03-16T18:05:46.143Z,45.11
2023-03-16T18:08:48.639Z,45.21
2023-03-16T18:11:51.393Z,45.62
2023-03-16T18:14:58.721Z,45.67
2023-03-16T18:18:01.598Z,45.85
2023-03-16T18:21:04.402Z,45.98
2023-03-16T18:24:15.866Z,46.53
2023-03-16T18:27:18.320Z,46.49
2023-03-16T18:30:20.137Z,46.93
2023-03-16T18:33:30.980Z,46.82
2023-03-16T18:36:36.145Z,47.00
2023-03-16T18:39:38.966Z,47.20
2023-03-16T18:42:41.910Z,47.18
2023-03-16T18:45:45.989Z,47.55
2023-03-16T18:48:48.605Z,47.82
2023-03-16T18:51:53.366Z,48.28
2023-03-16T18:54:55.962Z,48.86
2023-03-16T18:57:58.896Z,49.26
2023-03-16T19:01:01.802Z,49.74
2023-03-16T19:04:03.744Z,50.01
2023-03-16T19:07:10.956Z,50.42
2023-03-16T19:10:35.772Z,50.86
2023-03-16T19:13:37.620Z,51.00
2023-03-16T19:16:40.071Z,51.27
2023-03-16T19:19:42.840Z,51.63
2023-03-16T19:22:48.287Z,51.72
2023-03-16T19:25:51.580Z,51.91
2023-03-16T19:28:53.708Z,51.63
2023-03-16T19:31:56.993Z,51.98
2023-03-16T19:34:59.099Z,52.26
2023-03-16T19:38:01.239Z,51.94
2023-03-16T19:41:06.282Z,51.93
2023-03-16T19:44:20.264Z,52.41
2023-03-16T19:47:39.260Z,52.39
2023-03-16T19:50:43.172Z,52.43
2023-03-16T19:53:46.708Z,52.31
2023-03-16T19:56:50.226Z,52.32
2023-03-16T19:59:56.837Z,52.93
2023-03-16T20:02:58.970Z,53.56
2023-03-16T20:06:01.046Z,54.15
2023-03-16T20:09:02.788Z,54.30
2023-03-16T20:12:04.659Z,54.52
2023-03-16T20:15:07.221Z,54.69
2023-03-16T20:18:16.597Z,54.97
2023-03-16T20:21:18.460Z,54.63
2023-03-16T20:24:21.636Z,54.99
2023-03-16T20:27:24.581Z,54.82
2023-03-16T20:30:26.697Z,54.80
2023-03-16T20:33:28.943Z,54.87
2023-03-16T20:36:31.030Z,55.24
2023-03-16T20:39:32.890Z,55.59
2023-03-16T20:42:35.204Z,55.89
2023-03-16T20:45:37.481Z,56.47
2023-03-16T20:48:39.631Z,56.88
2023-03-16T20:51:44.555Z,56.70
2023-03-16T20:54:46.576Z,56.93
2023-03-16T20:57:49.735Z,56.77
2023-03-16T21:00:53.323Z,57.17
2023-03-16T21:03:56.162Z,56.58
2023-03-16T21:06:57.955Z,56.46
2023-03-16T21:09:59.650Z,56.56
2023-03-16T21:13:01.593Z,56.48
2023-03-16T21:16:04.811Z,56.25
2023-03-16T21:19:17.859Z,56.69
2023-03-16T21:22:34.925Z,56.89
2023-03-16T21:25:44.144Z,56.95
2023-03-16T21:28:58.176Z,57.24
2023-03-16T21:32:00.015Z,57.00
2023-03-16T21:35:01.875Z,57.21
2023-03-16T21:38:19.848Z,57.71
2023-03-16T21:41:22.113Z,57.68
2023-03-16T21:44:23.881Z,57.78
2023-03-16T21:47:28.253Z,58.12
2023-03-16T21:50:35.306Z,58.25
2023-03-16T21:53:38.426Z,58.03
2023-03-16T21:56:41.902Z,57.91
2023-03-16T21:59:43.753Z,57.82
2023-03-16T22:02:47.809Z,58.35
2023-03-16T22:05:49.878Z,58.42
2023-03-16T22:08:52.399Z,58.63
2023-03-16T22:11:54.204Z,58.90
2023-03-16T22:14:56.153Z,59.27
2023-03-16T22:18:01.813Z,59.44
2023-03-16T22:21:23.584Z,59.82
2023-03-16T22:24:30.492Z,60.13
2023-03-16T22:27:32.327Z,60.05
2023-03-16T22:30:34.186Z,60.03
2023-03-16T22:33:37.706Z,59.81
2023-03-16T22:36:39.466Z,59.62
2023-03-16T22:39:41.326Z,59.67
2023-03-16T22:42:43.182Z,59.88
2023-03-16T22:45:44.976Z,59.66
2023-03-16T22:48:47.056Z,59.65
2023-03-16T22:51:51.500Z,60.03
2023-03-16T22:54:53.432Z,59.91
2023-03-16T22:58:36.522Z,60.27
2023-03-16T23:01:43.655Z,60.19
2023-03-16T23:04:45.917Z,59.91
2023-03-16T23:07:47.852Z,60.41
2023-03-16T23:10:52.080Z,60.44
2023-03-16T23:13:54.726Z,60.32
2023-03-16T23:16:56.882Z,60.42
2023-03-16T23:19:58.623Z,60.52
2023-03-16T23:23:00.506Z,60.57
2023-03-16T23:26:02.252Z,60.45
2023-03-16T23:29:04.135Z,60.54
2023-03-16T23:32:06.413Z,60.64
2023-03-16T23:35:23.118Z,61.15
2023-03-16T23:38:24.811Z,60.79
2023-03-16T23:41:26.632Z,61.06
2023-03-16T23:44:29.245Z,61.36
2023-03-16T23:47:31.061Z,61.65
2023-03-16T23:50:35.773Z,62.12
2023-03-16T23:53:38.185Z,62.12
2023-03-16T23:56:39.942Z,62.20
2023-03-16T23:59:42.382Z,61.60
